x

Western Hawaii - 205 Nm Sw Of Honolulu, Hi (51003) Wave Buoy

11:50pm - Sun 26th Feb 2017 All times are HST. -10 hours from GMT.

  • Sig Wave height 7.5ft
  • Swell Direction
  • Peak Period 15s
  • Average Period 7s
  • Wind
    22mph, 27mph gusts
  • Sea Temp 75°f
  • Air Temp 73°f
  • Sea Pressure 1015.5mb
  • Western  Hawaii - 205 Nm Sw Of Honolulu, Hi
  • Western  Hawaii - 205 Nm Sw Of Honolulu, Hi

More Historic Weather Station data

Upgrade to MSW Pro to gain access to the past 30 days of data for over 8000 Wavebouys and Weather Stations around the globe.

Join Pro

Comparision Forecast

View Surf forecast
   
Sun 02/26 11:50pm 7.5ft 15s 7s 22 27 mph 1015.5mb 75f 73f
10:50pm 7ft 14s 7s 20 25 mph 1015.8mb 75f 73f
9:50pm 7ft 15s 7s 16 20 mph 1016.2mb 76f 76f
8:50pm 7ft 15s 7s 13 16 mph 1015.9mb 76f 76f
7:50pm 6ft 14s 7s 13 16 mph 1015.8mb 76f 76f
6:50pm 6ft 14s 7s 18 25 mph 1015mb 76f 71f
5:50pm 6ft 15s 7s 18 20 mph 1014.6mb 76f 76f
4:50pm 6ft 14s 7s 13 18 mph 1013.8mb 77f 75f
3:50pm 6ft 14s 7s 16 20 mph 1013.6mb 77f 76f
2:50pm 6.5ft 15s 8s 16 20 mph 1013.9mb 77f 76f
1:50pm 6.5ft 14s 7s 16 18 mph 1014.3mb 77f 76f
12:50pm 6ft 14s 7s 13 18 mph 1015mb 77f 76f
11:50am 5.5ft 15s 7s 16 18 mph 1015.7mb 77f 76f
10:50am 6ft 15s 7s 13 16 mph 1016.5mb 77f 76f
9:50am 6ft 15s 7s 13 16 mph 1016.3mb 77f 76f
8:50am 6ft 14s 8s 13 16 mph 1015.8mb 77f 76f
7:50am 5.5ft 15s 7s 11 16 mph 1015.2mb 77f 76f
6:50am 6ft 15s 8s 13 16 mph 1014.6mb 77f 76f
5:50am 6ft 15s 7s 13 16 mph 1014.3mb 77f 75f
4:50am 7ft 15s 8s 13 18 mph 1013.9mb 77f 75f
3:50am 6.5ft 15s 7s 11 16 mph 1014.4mb 77f 75f
2:50am 6ft 15s 8s 9 13 mph 1015mb 76f 74f
1:50am 6ft 15s 8s 11 13 mph 1015.4mb 76f 75f
12:50am 6ft 14s 8s 13 16 mph 1015.9mb 76f 75f
Sat 02/25 11:50pm 7ft 15s 8s 11 13 mph 1016.4mb 76f 75f
10:50pm 6ft 13s 7s 11 13 mph 1016.3mb 76f 75f
9:50pm 7ft 15s 9s 11 13 mph 1016mb 76f 75f
8:50pm 6.5ft 16s 8s 9 13 mph 1015.9mb 76f 74f
7:50pm 6.5ft 14s 8s 9 11 mph 1015.1mb 76f 74f
6:50pm 6.5ft 15s 8s 9 11 mph 1014.8mb 76f 74f
5:50pm 7ft 16s 8s 9 11 mph 1014.4mb 76f 74f
4:50pm 7ft 16s 8s 9 11 mph 1014mb 76f 74f
3:50pm 6.5ft 15s 8s 9 11 mph 1013.6mb 76f 74f
2:50pm 7ft 15s 8s 11
mph
1013.7mb 76f 74f
1:50pm 7ft 14s 8s 9 11 mph 1014.5mb 76f 74f
11:50am 7ft 14s 8s 11 13 mph 1016mb 76f 74f
10:50am 6.5ft 15s 8s 13 18 mph 1016.5mb 76f 74f
9:50am 7.5ft 16s 8s 9 13 mph 1016.8mb 76f 74f
8:50am 7.5ft 15s 8s 11 13 mph 1016.6mb 76f 74f
7:50am 7ft 16s 8s 13 18 mph 1015.9mb 76f 73f
6:50am 7ft 15s 8s 11 16 mph 1015.6mb 76f 73f
5:50am 7ft 16s 8s 9 11 mph 1015mb 77f 72f
4:50am 7ft 16s 7s 16 20 mph 1015mb 77f 71f
3:50am 7ft 16s 7s 11 16 mph 1015.3mb 77f 72f
2:50am 7ft 16s 7s 9 11 mph 1015.8mb 77f 73f
1:50am 7.5ft 16s 8s 13 18 mph 1016.2mb 77f 72f
12:50am 6.5ft 16s 7s 13 20 mph 1016.7mb 77f 72f
Fri 02/24 11:50pm 7ft 16s 7s 20 25 mph 1016.9mb 77f 72f
10:50pm 7ft 16s 7s 16 20 mph 1017.1mb 77f 73f
9:50pm 7ft 8s 7s 18 22 mph 1016.8mb 77f 74f
8:50pm 7ft 7s 7s 16 18 mph 1016.3mb 77f 75f
7:50pm 7.5ft 8s 7s 16 20 mph 1015.7mb 77f 74f
6:50pm 7ft 8s 6s 18 22 mph 1015.2mb 77f 74f
5:50pm 7ft 7s 7s 18 22 mph 1014.8mb 77f 74f
4:50pm 7ft 8s 7s 18 20 mph 1014.8mb 77f 74f
3:50pm 7ft 7s 7s 16 20 mph 1014.8mb 77f 74f
2:50pm 8ft 7s 7s 18 20 mph 1014.8mb 77f 74f
1:50pm 7ft 8s 6s 16 20 mph 1015.5mb 77f 74f
12:50pm 7ft 8s 7s 16 20 mph 1016.2mb 77f 74f
11:50am 7ft 7s 7s 18 20 mph 1016.8mb 77f 74f
10:50am 7.5ft 7s 7s 18 22 mph 1017.4mb 77f 74f
9:50am 7ft 8s 6s 20 25 mph 1017.2mb 77f 74f
8:50am 8ft 7s 7s 18 22 mph 1017.2mb 77f 74f
7:50am 8ft 7s 7s 16 20 mph 1017.4mb 77f 74f
6:50am 7.5ft 7s 6s 16 20 mph 1016.6mb 77f 74f
5:50am 8ft 8s 7s 20 25 mph 1016.4mb 77f 74f
4:50am 7.5ft 8s 7s 18 22 mph 1016.5mb 77f 74f
3:50am 7.5ft 8s 7s 18 22 mph 1016.6mb 77f 74f
2:50am 8ft 9s 7s 18 22 mph 1016.9mb 77f 74f
1:50am 8ft 7s 7s 16 20 mph 1017.6mb 77f 74f
12:50am 7.5ft 14s 7s 16 20 mph 1018.1mb 77f 75f
Thu 02/23 11:50pm 8ft 14s 7s 16 20 mph 1018.7mb 77f 74f
10:50pm 8ft 14s 7s 13 18 mph 1019mb 77f 75f
9:50pm 8ft 14s 7s 16 20 mph 1019mb 77f 75f
8:50pm 8ft 8s 7s 18 22 mph 1018.8mb 77f 75f
7:50pm 8ft 14s 7s 20 25 mph 1018.2mb 77f 75f
6:50pm 8.5ft 8s 7s 20 25 mph 1017.6mb 77f 75f
5:50pm 8ft 14s 7s 20 25 mph 1017.3mb 77f 75f
4:50pm 8ft 13s 7s 20 25 mph 1016.9mb 77f 75f
3:50pm 8ft 14s  -  22 27 mph 1016.8mb 77f 75f
2:50pm 8ft 7s 7s 22 27 mph 1017.4mb 77f 75f
1:50pm 8.5ft 8s 7s 22 29 mph 1018.4mb 77f 75f
12:50pm 8ft 7s 6s 22 27 mph 1019.3mb 77f 75f
11:50am 9ft 8s 7s 20 25 mph 1020.4mb 77f 75f